sensor_id;sensor_type;location;lat;lon;timestamp;pressure;altitude;pressure_sealevel;temperature;humidity
19520;BME280;9904;52.246;20.898;2023-12-22T00:01:32;96424.63;;;3.94;100.00
19520;BME280;9904;52.246;20.898;2023-12-22T00:03:59;96438.00;;;3.94;100.00
19520;BME280;9904;52.246;20.898;2023-12-22T00:06:26;96432.06;;;4.06;100.00
19520;BME280;9904;52.246;20.898;2023-12-22T00:08:52;96429.81;;;3.96;99.78
19520;BME280;9904;52.246;20.898;2023-12-22T00:11:20;96431.44;;;3.90;99.83
19520;BME280;9904;52.246;20.898;2023-12-22T00:13:46;96437.41;;;3.86;99.54
19520;BME280;9904;52.246;20.898;2023-12-22T00:16:13;96424.84;;;3.79;99.43
19520;BME280;9904;52.246;20.898;2023-12-22T00:18:40;96424.03;;;3.86;98.46
19520;BME280;9904;52.246;20.898;2023-12-22T00:21:12;96430.59;;;3.83;98.70
19520;BME280;9904;52.246;20.898;2023-12-22T00:23:39;96442.53;;;3.80;98.45
19520;BME280;9904;52.246;20.898;2023-12-22T00:26:05;96426.88;;;3.77;97.94
19520;BME280;9904;52.246;20.898;2023-12-22T00:28:32;96429.34;;;3.79;96.77
19520;BME280;9904;52.246;20.898;2023-12-22T00:30:59;96445.00;;;3.82;95.52
19520;BME280;9904;52.246;20.898;2023-12-22T00:33:25;96438.22;;;3.79;95.86
19520;BME280;9904;52.246;20.898;2023-12-22T00:35:52;96455.28;;;3.78;95.52
19520;BME280;9904;52.246;20.898;2023-12-22T00:38:19;96450.97;;;3.77;94.98
19520;BME280;9904;52.246;20.898;2023-12-22T00:40:46;96459.16;;;3.69;95.20
19520;BME280;9904;52.246;20.898;2023-12-22T00:43:12;96464.53;;;3.69;94.74
19520;BME280;9904;52.246;20.898;2023-12-22T00:45:39;96466.56;;;3.67;94.85
19520;BME280;9904;52.246;20.898;2023-12-22T00:48:06;96481.59;;;3.68;93.59
19520;BME280;9904;52.246;20.898;2023-12-22T00:50:32;96476.84;;;3.63;92.92
19520;BME280;9904;52.246;20.898;2023-12-22T00:52:59;96474.59;;;3.60;92.18
19520;BME280;9904;52.246;20.898;2023-12-22T00:55:25;96468.19;;;3.55;92.42
19520;BME280;9904;52.246;20.898;2023-12-22T00:57:52;96464.50;;;3.56;91.86
19520;BME280;9904;52.246;20.898;2023-12-22T01:00:18;96452.78;;;3.57;91.23
19520;BME280;9904;52.246;20.898;2023-12-22T01:02:45;96471.25;;;3.52;91.82
19520;BME280;9904;52.246;20.898;2023-12-22T01:05:11;96479.09;;;3.53;91.41
19520;BME280;9904;52.246;20.898;2023-12-22T01:07:38;96468.16;;;3.48;91.71
19520;BME280;9904;52.246;20.898;2023-12-22T01:10:05;96473.50;;;3.48;92.00
19520;BME280;9904;52.246;20.898;2023-12-22T01:12:32;96477.59;;;3.44;91.40
19520;BME280;9904;52.246;20.898;2023-12-22T01:14:59;96477.41;;;3.39;91.78
19520;BME280;9904;52.246;20.898;2023-12-22T01:17:25;96471.84;;;3.40;91.18
19520;BME280;9904;52.246;20.898;2023-12-22T01:19:52;96475.09;;;3.36;91.50
19520;BME280;9904;52.246;20.898;2023-12-22T01:22:20;96454.91;;;3.26;91.75
19520;BME280;9904;52.246;20.898;2023-12-22T01:24:47;96446.50;;;3.29;91.24
19520;BME280;9904;52.246;20.898;2023-12-22T01:27:13;96458.63;;;3.32;89.93
19520;BME280;9904;52.246;20.898;2023-12-22T01:29:40;96441.16;;;3.36;89.23
19520;BME280;9904;52.246;20.898;2023-12-22T01:32:06;96436.66;;;3.37;89.27
19520;BME280;9904;52.246;20.898;2023-12-22T01:34:33;96447.34;;;3.37;89.04
19520;BME280;9904;52.246;20.898;2023-12-22T01:37:00;96445.50;;;3.37;89.04
19520;BME280;9904;52.246;20.898;2023-12-22T01:39:26;96453.94;;;3.34;88.77
19520;BME280;9904;52.246;20.898;2023-12-22T01:41:53;96460.28;;;3.33;88.83
19520;BME280;9904;52.246;20.898;2023-12-22T01:44:20;96457.00;;;3.31;89.01
19520;BME280;9904;52.246;20.898;2023-12-22T01:46:46;96453.50;;;3.37;88.38
19520;BME280;9904;52.246;20.898;2023-12-22T01:49:14;96454.75;;;3.35;88.82
19520;BME280;9904;52.246;20.898;2023-12-22T01:51:42;96453.50;;;3.37;88.08
19520;BME280;9904;52.246;20.898;2023-12-22T01:54:10;96467.72;;;3.38;88.53
19520;BME280;9904;52.246;20.898;2023-12-22T01:56:37;96462.78;;;3.41;87.77
19520;BME280;9904;52.246;20.898;2023-12-22T01:59:04;96470.78;;;3.35;88.81
19520;BME280;9904;52.246;20.898;2023-12-22T02:01:31;96474.72;;;3.45;87.54
19520;BME280;9904;52.246;20.898;2023-12-22T02:03:59;96473.91;;;3.52;87.21
19520;BME280;9904;52.246;20.898;2023-12-22T02:06:26;96470.66;;;3.49;87.59
19520;BME280;9904;52.246;20.898;2023-12-22T02:08:53;96476.19;;;3.55;86.98
19520;BME280;9904;52.246;20.898;2023-12-22T02:11:20;96468.56;;;3.52;87.49
19520;BME280;9904;52.246;20.898;2023-12-22T02:13:46;96470.84;;;3.55;87.74
19520;BME280;9904;52.246;20.898;2023-12-22T02:16:20;96468.59;;;3.58;86.92
19520;BME280;9904;52.246;20.898;2023-12-22T02:18:55;96470.69;;;3.63;86.42
19520;BME280;9904;52.246;20.898;2023-12-22T02:21:22;96457.91;;;3.58;86.35
19520;BME280;9904;52.246;20.898;2023-12-22T02:23:49;96451.13;;;3.56;86.75
19520;BME280;9904;52.246;20.898;2023-12-22T02:26:33;96453.38;;;3.52;86.87
19520;BME280;9904;52.246;20.898;2023-12-22T02:29:01;96446.16;;;3.53;87.00
19520;BME280;9904;52.246;20.898;2023-12-22T02:31:37;96441.44;;;3.55;87.37
19520;BME280;9904;52.246;20.898;2023-12-22T02:34:14;96442.25;;;3.48;87.07
19520;BME280;9904;52.246;20.898;2023-12-22T02:36:44;96449.84;;;3.45;87.28
19520;BME280;9904;52.246;20.898;2023-12-22T02:39:13;96445.75;;;3.42;87.26
19520;BME280;9904;52.246;20.898;2023-12-22T02:41:41;96452.72;;;3.43;87.82
19520;BME280;9904;52.246;20.898;2023-12-22T02:44:08;96453.94;;;3.41;87.84
19520;BME280;9904;52.246;20.898;2023-12-22T02:46:34;96452.09;;;3.41;87.70
19520;BME280;9904;52.246;20.898;2023-12-22T02:49:01;96451.91;;;3.43;87.69
19520;BME280;9904;52.246;20.898;2023-12-22T02:51:28;96453.16;;;3.54;86.53
19520;BME280;9904;52.246;20.898;2023-12-22T02:53:55;96451.94;;;3.49;86.93
19520;BME280;9904;52.246;20.898;2023-12-22T02:56:21;96441.06;;;3.58;85.98
19520;BME280;9904;52.246;20.898;2023-12-22T02:58:48;96449.06;;;3.58;85.77
19520;BME280;9904;52.246;20.898;2023-12-22T03:01:14;96447.84;;;3.60;84.47
19520;BME280;9904;52.246;20.898;2023-12-22T03:03:41;96444.31;;;3.60;84.61
19520;BME280;9904;52.246;20.898;2023-12-22T03:06:08;96452.34;;;3.53;85.32
19520;BME280;9904;52.246;20.898;2023-12-22T03:08:34;96450.28;;;3.48;86.28
19520;BME280;9904;52.246;20.898;2023-12-22T03:11:01;96454.53;;;3.29;89.29
19520;BME280;9904;52.246;20.898;2023-12-22T03:13:28;96461.03;;;3.13;91.00
19520;BME280;9904;52.246;20.898;2023-12-22T03:15:55;96448.88;;;3.11;91.56
19520;BME280;9904;52.246;20.898;2023-12-22T03:18:21;96463.25;;;3.03;92.79
19520;BME280;9904;52.246;20.898;2023-12-22T03:20:48;96460.78;;;3.01;92.51
19520;BME280;9904;52.246;20.898;2023-12-22T03:23:14;96460.72;;;2.95;93.75
19520;BME280;9904;52.246;20.898;2023-12-22T03:25:41;96449.19;;;2.88;93.81
19520;BME280;9904;52.246;20.898;2023-12-22T03:28:08;96429.03;;;2.85;93.62
19520;BME280;9904;52.246;20.898;2023-12-22T03:30:34;96438.28;;;2.89;93.62
19520;BME280;9904;52.246;20.898;2023-12-22T03:33:02;96435.66;;;2.96;92.56
19520;BME280;9904;52.246;20.898;2023-12-22T03:35:29;96453.34;;;2.97;92.21
19520;BME280;9904;52.246;20.898;2023-12-22T03:37:55;96443.91;;;2.94;91.84
19520;BME280;9904;52.246;20.898;2023-12-22T03:40:22;96444.72;;;2.95;91.63
19520;BME280;9904;52.246;20.898;2023-12-22T03:42:49;96450.06;;;2.95;91.89
19520;BME280;9904;52.246;20.898;2023-12-22T03:45:15;96438.94;;;2.91;92.00
19520;BME280;9904;52.246;20.898;2023-12-22T03:47:42;96448.75;;;2.84;92.82
19520;BME280;9904;52.246;20.898;2023-12-22T03:50:09;96459.66;;;2.82;93.17
19520;BME280;9904;52.246;20.898;2023-12-22T03:52:35;96464.59;;;2.85;92.55
19520;BME280;9904;52.246;20.898;2023-12-22T03:55:02;96457.41;;;2.86;92.30
19520;BME280;9904;52.246;20.898;2023-12-22T03:57:29;96449.19;;;2.88;92.50
19520;BME280;9904;52.246;20.898;2023-12-22T03:59:56;96439.31;;;2.88;92.48
19520;BME280;9904;52.246;20.898;2023-12-22T04:02:22;96445.06;;;2.85;92.63
19520;BME280;9904;52.246;20.898;2023-12-22T04:04:49;96457.00;;;2.89;92.22
19520;BME280;9904;52.246;20.898;2023-12-22T04:07:15;96453.31;;;2.90;91.36
19520;BME280;9904;52.246;20.898;2023-12-22T04:09:42;96446.75;;;2.93;90.95
19520;BME280;9904;52.246;20.898;2023-12-22T04:12:08;96440.16;;;2.89;91.00
19520;BME280;9904;52.246;20.898;2023-12-22T04:14:35;96446.13;;;2.91;90.38
19520;BME280;9904;52.246;20.898;2023-12-22T04:17:01;96445.94;;;2.92;89.63
19520;BME280;9904;52.246;20.898;2023-12-22T04:19:28;96433.38;;;2.86;89.92
19520;BME280;9904;52.246;20.898;2023-12-22T04:21:55;96429.84;;;2.85;89.77
19520;BME280;9904;52.246;20.898;2023-12-22T04:24:21;96437.28;;;2.90;89.53
19520;BME280;9904;52.246;20.898;2023-12-22T04:26:48;96440.53;;;2.85;89.43
19520;BME280;9904;52.246;20.898;2023-12-22T04:29:14;96447.53;;;2.87;88.76
19520;BME280;9904;52.246;20.898;2023-12-22T04:31:41;96437.66;;;2.80;89.39
19520;BME280;9904;52.246;20.898;2023-12-22T04:34:08;96440.13;;;2.82;88.92
19520;BME280;9904;52.246;20.898;2023-12-22T04:36:35;96449.78;;;2.83;88.32
19520;BME280;9904;52.246;20.898;2023-12-22T04:39:02;96464.59;;;2.85;88.19
19520;BME280;9904;52.246;20.898;2023-12-22T04:41:28;96462.31;;;2.82;88.23
19520;BME280;9904;52.246;20.898;2023-12-22T04:43:55;96447.31;;;2.81;88.59
19520;BME280;9904;52.246;20.898;2023-12-22T04:46:22;96449.94;;;2.75;88.54
19520;BME280;9904;52.246;20.898;2023-12-22T04:48:48;96477.03;;;2.72;89.34
19520;BME280;9904;52.246;20.898;2023-12-22T04:51:15;96451.31;;;2.64;89.91
19520;BME280;9904;52.246;20.898;2023-12-22T04:53:41;96462.78;;;2.58;90.70
19520;BME280;9904;52.246;20.898;2023-12-22T04:56:08;96451.81;;;2.46;91.41
19520;BME280;9904;52.246;20.898;2023-12-22T04:58:35;96464.72;;;2.42;91.38
19520;BME280;9904;52.246;20.898;2023-12-22T05:01:02;96455.06;;;2.41;91.74
19520;BME280;9904;52.246;20.898;2023-12-22T05:03:28;96470.44;;;2.39;91.04
19520;BME280;9904;52.246;20.898;2023-12-22T05:05:55;96485.19;;;2.35;91.83
19520;BME280;9904;52.246;20.898;2023-12-22T05:08:21;96465.63;;;2.28;91.68
19520;BME280;9904;52.246;20.898;2023-12-22T05:10:48;96491.75;;;2.32;91.28
19520;BME280;9904;52.246;20.898;2023-12-22T05:13:15;96494.56;;;2.31;91.79
19520;BME280;9904;52.246;20.898;2023-12-22T05:15:41;96501.41;;;2.33;91.79
19520;BME280;9904;52.246;20.898;2023-12-22T05:18:08;96495.63;;;2.30;91.57
19520;BME280;9904;52.246;20.898;2023-12-22T05:20:34;96490.72;;;2.33;90.93
19520;BME280;9904;52.246;20.898;2023-12-22T05:23:01;96497.53;;;2.36;91.09
19520;BME280;9904;52.246;20.898;2023-12-22T05:25:28;96500.00;;;2.37;91.62
19520;BME280;9904;52.246;20.898;2023-12-22T05:27:55;96488.06;;;2.33;92.29
19520;BME280;9904;52.246;20.898;2023-12-22T05:30:22;96500.56;;;2.33;92.27
19520;BME280;9904;52.246;20.898;2023-12-22T05:32:48;96502.78;;;2.29;92.46
19520;BME280;9904;52.246;20.898;2023-12-22T05:35:15;96501.41;;;2.33;91.81
19520;BME280;9904;52.246;20.898;2023-12-22T05:37:42;96509.41;;;2.33;92.05
19520;BME280;9904;52.246;20.898;2023-12-22T05:40:08;96514.91;;;2.32;92.14
19520;BME280;9904;52.246;20.898;2023-12-22T05:42:36;96506.91;;;2.32;92.19
19520;BME280;9904;52.246;20.898;2023-12-22T05:45:03;96512.22;;;2.25;93.34
19520;BME280;9904;52.246;20.898;2023-12-22T05:47:30;96513.91;;;2.11;95.12
19520;BME280;9904;52.246;20.898;2023-12-22T05:49:56;96521.91;;;2.11;95.12
19520;BME280;9904;52.246;20.898;2023-12-22T05:52:23;96512.91;;;2.12;94.10
19520;BME280;9904;52.246;20.898;2023-12-22T05:54:50;96512.50;;;2.15;93.78
19520;BME280;9904;52.246;20.898;2023-12-22T05:57:16;96516.22;;;2.14;93.78
19520;BME280;9904;52.246;20.898;2023-12-22T05:59:43;96500.44;;;2.19;92.35
19520;BME280;9904;52.246;20.898;2023-12-22T06:02:10;96531.34;;;2.29;90.72
19520;BME280;9904;52.246;20.898;2023-12-22T06:04:36;96517.41;;;2.33;89.80
19520;BME280;9904;52.246;20.898;2023-12-22T06:07:03;96516.81;;;2.38;89.10
19520;BME280;9904;52.246;20.898;2023-12-22T06:09:30;96536.53;;;2.37;88.92
19520;BME280;9904;52.246;20.898;2023-12-22T06:11:56;96530.44;;;2.43;87.76
19520;BME280;9904;52.246;20.898;2023-12-22T06:14:24;96529.00;;;2.47;86.62
19520;BME280;9904;52.246;20.898;2023-12-22T06:16:50;96529.84;;;2.48;86.33
19520;BME280;9904;52.246;20.898;2023-12-22T06:19:17;96529.84;;;2.48;85.63
19520;BME280;9904;52.246;20.898;2023-12-22T06:21:44;96530.72;;;2.55;84.52
19520;BME280;9904;52.246;20.898;2023-12-22T06:24:11;96528.88;;;2.56;83.01
19520;BME280;9904;52.246;20.898;2023-12-22T06:26:37;96531.41;;;2.64;81.43
19520;BME280;9904;52.246;20.898;2023-12-22T06:29:04;96532.03;;;2.66;81.01
19520;BME280;9904;52.246;20.898;2023-12-22T06:31:31;96547.50;;;2.71;79.68
19520;BME280;9904;52.246;20.898;2023-12-22T06:33:57;96566.19;;;2.71;79.74
19520;BME280;9904;52.246;20.898;2023-12-22T06:36:29;96564.38;;;2.78;77.58
19520;BME280;9904;52.246;20.898;2023-12-22T06:38:58;96568.50;;;2.80;77.04
19520;BME280;9904;52.246;20.898;2023-12-22T06:41:27;96569.16;;;2.82;75.53
19520;BME280;9904;52.246;20.898;2023-12-22T06:43:56;96571.63;;;2.84;74.26
19520;BME280;9904;52.246;20.898;2023-12-22T06:46:24;96564.25;;;2.86;73.42
19520;BME280;9904;52.246;20.898;2023-12-22T06:48:55;96561.03;;;2.97;70.18
19520;BME280;9904;52.246;20.898;2023-12-22T06:51:27;96563.03;;;2.89;70.15
19520;BME280;9904;52.246;20.898;2023-12-22T06:53:55;96579.69;;;2.91;68.53
19520;BME280;9904;52.246;20.898;2023-12-22T06:56:27;96565.25;;;2.85;68.77
19520;BME280;9904;52.246;20.898;2023-12-22T06:58:55;96567.66;;;2.80;68.59
19520;BME280;9904;52.246;20.898;2023-12-22T07:01:28;96562.38;;;2.87;67.85
19520;BME280;9904;52.246;20.898;2023-12-22T07:03:55;96567.53;;;2.88;67.15
19520;BME280;9904;52.246;20.898;2023-12-22T07:06:24;96577.75;;;2.78;67.44
19520;BME280;9904;52.246;20.898;2023-12-22T07:11:49;96590.22;;;2.71;69.10
19520;BME280;9904;52.246;20.898;2023-12-22T07:14:17;96602.56;;;2.72;69.69
19520;BME280;9904;52.246;20.898;2023-12-22T07:16:44;96597.97;;;2.65;70.59
19520;BME280;9904;52.246;20.898;2023-12-22T07:19:11;96595.56;;;2.71;70.87
19520;BME280;9904;52.246;20.898;2023-12-22T07:21:41;96611.94;;;2.67;71.14
19520;BME280;9904;52.246;20.898;2023-12-22T07:24:12;96615.59;;;2.60;71.86
19520;BME280;9904;52.246;20.898;2023-12-22T07:26:41;96602.84;;;2.62;70.79
19520;BME280;9904;52.246;20.898;2023-12-22T07:29:08;96609.41;;;2.59;70.95
19520;BME280;9904;52.246;20.898;2023-12-22T07:31:35;96605.09;;;2.58;70.53
19520;BME280;9904;52.246;20.898;2023-12-22T07:34:01;96607.38;;;2.61;68.99
19520;BME280;9904;52.246;20.898;2023-12-22T07:36:29;96614.31;;;2.56;69.73
19520;BME280;9904;52.246;20.898;2023-12-22T07:38:55;96616.72;;;2.50;69.78
19520;BME280;9904;52.246;20.898;2023-12-22T07:41:24;96625.09;;;2.47;69.20
19520;BME280;9904;52.246;20.898;2023-12-22T07:43:50;96628.91;;;2.38;70.31
19520;BME280;9904;52.246;20.898;2023-12-22T07:46:18;96608.19;;;2.40;69.75
19520;BME280;9904;52.246;20.898;2023-12-22T07:48:45;96628.88;;;2.31;69.52
19520;BME280;9904;52.246;20.898;2023-12-22T07:51:12;96635.97;;;2.24;70.22
19520;BME280;9904;52.246;20.898;2023-12-22T07:53:39;96618.31;;;2.23;71.44
19520;BME280;9904;52.246;20.898;2023-12-22T07:56:06;96638.44;;;2.26;70.63
19520;BME280;9904;52.246;20.898;2023-12-22T07:58:34;96642.13;;;2.25;70.67
19520;BME280;9904;52.246;20.898;2023-12-22T08:01:01;96641.75;;;2.28;69.89
19520;BME280;9904;52.246;20.898;2023-12-22T08:03:28;96633.88;;;2.19;70.32
19520;BME280;9904;52.246;20.898;2023-12-22T08:05:55;96638.38;;;2.19;70.00
19520;BME280;9904;52.246;20.898;2023-12-22T08:08:22;96642.13;;;2.25;69.65
19520;BME280;9904;52.246;20.898;2023-12-22T08:10:49;96646.66;;;2.24;69.60
19520;BME280;9904;52.246;20.898;2023-12-22T08:13:16;96638.84;;;2.22;69.52
19520;BME280;9904;52.246;20.898;2023-12-22T08:15:44;96639.34;;;2.33;69.00
19520;BME280;9904;52.246;20.898;2023-12-22T08:18:10;96650.13;;;2.25;70.26
19520;BME280;9904;52.246;20.898;2023-12-22T08:20:37;96657.88;;;2.19;70.94
19520;BME280;9904;52.246;20.898;2023-12-22T08:23:09;96658.19;;;2.10;72.46
19520;BME280;9904;52.246;20.898;2023-12-22T08:25:38;96667.00;;;2.10;73.70
19520;BME280;9904;52.246;20.898;2023-12-22T08:28:09;96677.03;;;2.08;74.53
19520;BME280;9904;52.246;20.898;2023-12-22T08:30:36;96678.88;;;2.08;75.25
19520;BME280;9904;52.246;20.898;2023-12-22T08:33:03;96686.97;;;1.99;76.73
19520;BME280;9904;52.246;20.898;2023-12-22T08:35:30;96689.44;;;2.16;77.81
19520;BME280;9904;52.246;20.898;2023-12-22T08:37:57;96694.22;;;2.57;80.55
19520;BME280;9904;52.246;20.898;2023-12-22T08:40:24;96698.47;;;2.15;78.15
19520;BME280;9904;52.246;20.898;2023-12-22T08:42:55;96693.22;;;2.21;78.89
19520;BME280;9904;52.246;20.898;2023-12-22T08:45:26;96695.03;;;2.36;78.04
19520;BME280;9904;52.246;20.898;2023-12-22T08:47:56;96695.84;;;2.36;78.66
19520;BME280;9904;52.246;20.898;2023-12-22T08:50:23;96694.22;;;2.20;79.28
19520;BME280;9904;52.246;20.898;2023-12-22T08:52:50;96686.47;;;2.26;79.72
19520;BME280;9904;52.246;20.898;2023-12-22T08:55:17;96683.81;;;2.26;79.26
19520;BME280;9904;52.246;20.898;2023-12-22T08:57:45;96688.66;;;2.37;78.95
19520;BME280;9904;52.246;20.898;2023-12-22T09:00:24;96683.91;;;2.54;78.78
19520;BME280;9904;52.246;20.898;2023-12-22T09:02:52;96675.56;;;3.07;75.59
19520;BME280;9904;52.246;20.898;2023-12-22T09:05:20;96674.94;;;3.62;73.85
19520;BME280;9904;52.246;20.898;2023-12-22T09:07:48;96678.75;;;3.17;74.68
19520;BME280;9904;52.246;20.898;2023-12-22T09:10:15;96685.34;;;2.93;75.61
19520;BME280;9904;52.246;20.898;2023-12-22T09:12:42;96668.22;;;2.66;75.99
19520;BME280;9904;52.246;20.898;2023-12-22T09:15:09;96674.63;;;2.50;76.69
19520;BME280;9904;52.246;20.898;2023-12-22T09:17:35;96663.09;;;3.14;75.47
19520;BME280;9904;52.246;20.898;2023-12-22T09:20:02;96656.94;;;3.77;72.51
19520;BME280;9904;52.246;20.898;2023-12-22T09:22:29;96651.34;;;4.14;69.87
19520;BME280;9904;52.246;20.898;2023-12-22T09:24:56;96658.16;;;4.23;69.50
19520;BME280;9904;52.246;20.898;2023-12-22T09:27:22;96653.31;;;4.54;67.96
19520;BME280;9904;52.246;20.898;2023-12-22T09:29:49;96636.00;;;4.56;67.86
19520;BME280;9904;52.246;20.898;2023-12-22T09:32:16;96642.09;;;4.23;68.11
19520;BME280;9904;52.246;20.898;2023-12-22T09:34:43;96638.84;;;4.35;68.03
19520;BME280;9904;52.246;20.898;2023-12-22T09:37:09;96627.56;;;4.53;66.98
19520;BME280;9904;52.246;20.898;2023-12-22T09:39:36;96610.75;;;4.04;66.66
19520;BME280;9904;52.246;20.898;2023-12-22T09:42:05;96614.88;;;4.06;68.06
19520;BME280;9904;52.246;20.898;2023-12-22T09:44:32;96623.28;;;3.96;68.55
19520;BME280;9904;52.246;20.898;2023-12-22T09:47:04;96613.53;;;3.40;69.67
19520;BME280;9904;52.246;20.898;2023-12-22T09:49:33;96603.34;;;3.22;70.43
19520;BME280;9904;52.246;20.898;2023-12-22T09:52:01;96604.72;;;3.11;72.14
19520;BME280;9904;52.246;20.898;2023-12-22T09:54:30;96586.94;;;2.97;72.07
19520;BME280;9904;52.246;20.898;2023-12-22T09:56:59;96588.53;;;2.91;72.90
19520;BME280;9904;52.246;20.898;2023-12-22T09:59:45;96590.31;;;2.84;72.88
19520;BME280;9904;52.246;20.898;2023-12-22T10:02:13;96589.88;;;2.80;73.58
19520;BME280;9904;52.246;20.898;2023-12-22T10:04:39;96581.22;;;2.78;73.80
19520;BME280;9904;52.246;20.898;2023-12-22T10:07:07;96584.28;;;2.53;79.12
19520;BME280;9904;52.246;20.898;2023-12-22T10:09:36;96622.44;;;0.38;96.24
19520;BME280;9904;52.246;20.898;2023-12-22T10:12:03;96657.75;;;0.00;100.00
19520;BME280;9904;52.246;20.898;2023-12-22T10:14:31;96664.81;;;-0.24;100.00
19520;BME280;9904;52.246;20.898;2023-12-22T10:17:04;96667.72;;;-0.42;100.00
19520;BME280;9904;52.246;20.898;2023-12-22T10:19:31;96685.19;;;-0.56;100.00
19520;BME280;9904;52.246;20.898;2023-12-22T10:21:58;96684.91;;;-0.77;100.00
19520;BME280;9904;52.246;20.898;2023-12-22T10:24:41;96705.66;;;-0.98;100.00
19520;BME280;9904;52.246;20.898;2023-12-22T10:27:15;96690.59;;;-1.14;100.00
19520;BME280;9904;52.246;20.898;2023-12-22T10:29:49;96700.69;;;-1.25;100.00
19520;BME280;9904;52.246;20.898;2023-12-22T10:32:16;96684.09;;;-1.36;100.00
19520;BME280;9904;52.246;20.898;2023-12-22T10:34:43;96697.03;;;-1.41;100.00
19520;BME280;9904;52.246;20.898;2023-12-22T10:37:10;96675.47;;;-1.38;100.00
19520;BME280;9904;52.246;20.898;2023-12-22T10:39:37;96711.13;;;-1.32;100.00
19520;BME280;9904;52.246;20.898;2023-12-22T10:42:06;96695.69;;;-1.37;100.00
19520;BME280;9904;52.246;20.898;2023-12-22T10:44:33;96686.91;;;-1.37;100.00
19520;BME280;9904;52.246;20.898;2023-12-22T10:47:00;96679.28;;;-1.32;100.00
19520;BME280;9904;52.246;20.898;2023-12-22T10:49:27;96668.69;;;-1.32;100.00
19520;BME280;9904;52.246;20.898;2023-12-22T10:51:55;96664.34;;;-1.33;100.00
19520;BME280;9904;52.246;20.898;2023-12-22T10:54:22;96661.22;;;-1.29;100.00
19520;BME280;9904;52.246;20.898;2023-12-22T10:56:49;96647.78;;;-1.27;100.00
19520;BME280;9904;52.246;20.898;2023-12-22T10:59:22;96632.34;;;-1.23;100.00
19520;BME280;9904;52.246;20.898;2023-12-22T11:01:51;96633.00;;;-1.21;100.00
19520;BME280;9904;52.246;20.898;2023-12-22T11:04:20;96619.44;;;-1.18;100.00
19520;BME280;9904;52.246;20.898;2023-12-22T11:06:49;96622.06;;;-1.10;100.00
19520;BME280;9904;52.246;20.898;2023-12-22T11:09:17;96626.84;;;-1.05;100.00
19520;BME280;9904;52.246;20.898;2023-12-22T11:11:44;96618.84;;;-0.89;100.00
19520;BME280;9904;52.246;20.898;2023-12-22T11:14:12;96608.38;;;-0.74;100.00
19520;BME280;9904;52.246;20.898;2023-12-22T11:16:41;96607.84;;;-0.61;100.00
19520;BME280;9904;52.246;20.898;2023-12-22T11:19:14;96600.47;;;-0.51;100.00
19520;BME280;9904;52.246;20.898;2023-12-22T11:21:42;96595.81;;;-0.40;100.00
19520;BME280;9904;52.246;20.898;2023-12-22T11:24:11;96589.78;;;-0.34;100.00
19520;BME280;9904;52.246;20.898;2023-12-22T11:26:41;96604.03;;;-0.27;100.00
19520;BME280;9904;52.246;20.898;2023-12-22T11:29:10;96583.41;;;-0.17;100.00
19520;BME280;9904;52.246;20.898;2023-12-22T11:31:37;96576.91;;;-0.14;100.00
19520;BME280;9904;52.246;20.898;2023-12-22T11:34:04;96595.56;;;0.01;100.00
19520;BME280;9904;52.246;20.898;2023-12-22T11:36:41;96593.03;;;0.08;100.00
19520;BME280;9904;52.246;20.898;2023-12-22T11:39:09;96584.25;;;0.07;100.00
19520;BME280;9904;52.246;20.898;2023-12-22T11:41:37;96586.13;;;-0.02;100.00
19520;BME280;9904;52.246;20.898;2023-12-22T11:44:05;96585.59;;;0.03;100.00
19520;BME280;9904;52.246;20.898;2023-12-22T11:46:32;96588.16;;;0.20;100.00
19520;BME280;9904;52.246;20.898;2023-12-22T11:49:00;96590.34;;;0.16;100.00
19520;BME280;9904;52.246;20.898;2023-12-22T11:51:32;96591.19;;;0.08;100.00
19520;BME280;9904;52.246;20.898;2023-12-22T11:54:01;96571.63;;;0.01;100.00
19520;BME280;9904;52.246;20.898;2023-12-22T11:56:28;96581.41;;;0.09;100.00
19520;BME280;9904;52.246;20.898;2023-12-22T11:58:56;96582.81;;;0.20;100.00
19520;BME280;9904;52.246;20.898;2023-12-22T12:01:26;96573.94;;;0.27;100.00
19520;BME280;9904;52.246;20.898;2023-12-22T12:04:02;96567.81;;;0.27;100.00
19520;BME280;9904;52.246;20.898;2023-12-22T12:06:32;96572.53;;;0.40;100.00
19520;BME280;9904;52.246;20.898;2023-12-22T12:09:01;96566.75;;;0.36;100.00
19520;BME280;9904;52.246;20.898;2023-12-22T12:14:16;96560.06;;;0.40;100.00
19520;BME280;9904;52.246;20.898;2023-12-22T12:16:48;96559.81;;;0.50;100.00
19520;BME280;9904;52.246;20.898;2023-12-22T12:19:14;96558.91;;;0.58;100.00
19520;BME280;9904;52.246;20.898;2023-12-22T12:21:41;96555.06;;;0.60;100.00
19520;BME280;9904;52.246;20.898;2023-12-22T12:24:09;96544.59;;;0.59;100.00
19520;BME280;9904;52.246;20.898;2023-12-22T12:26:36;96548.63;;;0.55;100.00
19520;BME280;9904;52.246;20.898;2023-12-22T12:29:03;96550.81;;;0.51;100.00
19520;BME280;9904;52.246;20.898;2023-12-22T12:31:40;96546.34;;;0.52;100.00
19520;BME280;9904;52.246;20.898;2023-12-22T12:34:10;96537.22;;;0.46;100.00
19520;BME280;9904;52.246;20.898;2023-12-22T12:36:38;96523.38;;;0.51;100.00
19520;BME280;9904;52.246;20.898;2023-12-22T12:39:08;96553.00;;;0.47;100.00
19520;BME280;9904;52.246;20.898;2023-12-22T12:41:40;96550.34;;;0.47;100.00
19520;BME280;9904;52.246;20.898;2023-12-22T12:44:08;96546.88;;;0.47;100.00
19520;BME280;9904;52.246;20.898;2023-12-22T12:46:36;96544.94;;;0.41;100.00
19520;BME280;9904;52.246;20.898;2023-12-22T12:49:07;96547.75;;;0.39;100.00
19520;BME280;9904;52.246;20.898;2023-12-22T12:51:38;96549.31;;;0.34;100.00
19520;BME280;9904;52.246;20.898;2023-12-22T12:54:06;96531.69;;;0.33;100.00
19520;BME280;9904;52.246;20.898;2023-12-22T12:56:40;96558.31;;;0.33;100.00
19520;BME280;9904;52.246;20.898;2023-12-22T12:59:12;96550.19;;;0.26;100.00
19520;BME280;9904;52.246;20.898;2023-12-22T13:01:46;96530.75;;;0.25;100.00
19520;BME280;9904;52.246;20.898;2023-12-22T13:04:13;96564.03;;;0.21;100.00
19520;BME280;9904;52.246;20.898;2023-12-22T13:06:50;96531.81;;;0.16;100.00
19520;BME280;9904;52.246;20.898;2023-12-22T13:09:19;96543.28;;;0.17;100.00
19520;BME280;9904;52.246;20.898;2023-12-22T13:11:46;96534.28;;;0.18;100.00
19520;BME280;9904;52.246;20.898;2023-12-22T13:14:23;96526.69;;;0.14;100.00
19520;BME280;9904;52.246;20.898;2023-12-22T13:16:57;96529.50;;;0.13;100.00